• Join FlightAware (Why Join?)
  • Login
  • US Flag 
11:28PM EST


 

Airport Tracker/Info


-or-


 

Live Flight TrackerFlight Track Log ✈ N770NC ✈ 12-Jun-2013 ✈ KORD - KATL

Flight Track Log - Related Links

Times and Time Zones

All times are in EDT time to prevent confusion due to time zone crossing. See the N770NC flight status page for this flight to view local times or setup timezone preferences in your user account.

Time Position Orientation Groundspeed Altitude Reporting Facility
EDT Latitude Longitude Course Direction KTS MPH feet Rate Location/Type
03:21PM 41.9000 -87.8667 166° South 243 280 3,600  Level Chicago TRACON
03:21PM 41.8878 -87.8592 155° Southeast 233 268 4,300 1,500 Climbing Chicago Center
03:22PM 41.8172 -87.8456 172° South 244 281 5,600 1,740 Climbing Chicago Center
03:23PM 41.6686 -87.7598 180° South  Level Estimated
03:23PM 41.7431 -87.8267 169° South 262 302 7,900  Level Chicago Center
03:24PM 41.5642 -87.7112 168° South  Level Estimated
03:25PM 41.4634 -87.7719 204° Southwest  Level FlightAware Approximate
03:25PM 41.6650 -87.8075 170° South 282 325 9,800  Level Chicago Center
03:26PM 41.3594 -87.7221 166° South  Level Estimated
03:26PM 41.5833 -87.7839 168° South 296 341 11,700  Level Chicago Center
03:27PM 41.4972 -87.7736 175° South 307 353 12,900 1,140 Climbing Chicago Center
03:28PM 41.4000 -87.7828 184° South 343 395 14,100 1,680 Climbing Chicago Center
03:29PM 41.2781 -87.7964 185° South 363 418 16,400 1,860 Climbing Chicago Center
03:30PM 41.1725 -87.7817 174° South 381 438 18,000 1,440 Climbing Chicago Center
03:31PM 41.0636 -87.7586 171° South 395 455 19,400 1,380 Climbing Chicago Center
03:32PM 40.9517 -87.7300 169° South 406 467 20,900 1,380 Climbing Chicago Center
03:33PM 40.8361 -87.7031 170° South 419 482 22,300 1,260 Climbing Chicago Center
03:34PM 40.6994 -87.6728 170° South 419 482 23,600 1,140 Climbing Chicago Center
03:35PM 40.5842 -87.6486 171° South 420 483 24,700 1,020 Climbing Chicago Center
03:36PM 40.4703 -87.6092 165° South 424 488 25,800 900 Climbing Chicago Center
03:37PM 40.3575 -87.5628 163° South 426 490 26,600 720 Climbing Chicago Center
03:38PM 40.2419 -87.5206 164° South 433 498 27,300 720 Climbing Chicago Center
03:39PM 40.1050 -87.4569 160° South 437 503 28,200 780 Climbing Chicago Center
03:40PM 40.0464 -87.4300 161° South 441 507 28,600 480 Climbing Indianapolis Center
03:41PM 39.9289 -87.3692 158° South 448 516 29,000 180 Climbing Indianapolis Center
03:42PM 39.8044 -87.3144 161° South 464 534 29,000  Level Indianapolis Center
03:43PM 39.6467 -87.2672 167° South 479 551 29,000  Level Indianapolis Center
03:44PM 39.5108 -87.2469 173° South 488 562 29,000  Level Indianapolis Center
03:45PM 39.3783 -87.2292 174° South 481 554 29,000  Level Indianapolis Center
03:46PM 39.2469 -87.1889 167° South 483 556 29,000  Level Indianapolis Center
03:47PM 39.1164 -87.1442 165° South 483 556 29,000  Level Indianapolis Center
03:48PM 38.9869 -87.0919 163° South 485 558 29,000  Level Indianapolis Center
03:49PM 38.8575 -87.0381 162° South 486 559 29,000  Level Indianapolis Center
03:50PM 38.7014 -86.9733 162° South 487 560 29,000  Level Indianapolis Center
03:51PM 38.5711 -86.9175 161° South 488 562 29,000  Level Indianapolis Center
03:52PM 38.4400 -86.8608 161° South 489 563 29,000  Level Indianapolis Center
03:53PM 38.3078 -86.8025 161° South 490 564 29,000  Level Indianapolis Center
03:54PM 38.1764 -86.7478 162° South 488 562 29,000  Level Indianapolis Center
03:55PM 38.0433 -86.7036 165° South 488 562 29,000  Level Indianapolis Center
03:56PM 37.9100 -86.6664 168° South 487 560 29,000  Level Indianapolis Center
03:57PM 37.7758 -86.6383 171° South 484 557 29,000  Level Indianapolis Center
03:58PM 37.6397 -86.6239 175° South 486 559 29,000  Level Indianapolis Center
03:59PM 37.4928 -86.6072 175° South 489 563 29,000  Level Indianapolis Center
04:00PM 37.3556 -86.5881 174° South 491 565 29,000  Level Indianapolis Center
04:01PM 37.2194 -86.5553 169° South 493 567 29,000  Level Indianapolis Center
04:02PM 37.0572 -86.4994 165° South 496 571 29,000  Level Memphis Center
04:03PM 36.9244 -86.4514 164° South 502 578 29,000  Level Memphis Center
04:04PM 36.7900 -86.4164 168° South 497 572 29,000  Level Memphis Center
04:05PM 36.6542 -86.4075 177° South 490 564 29,000  Level Memphis Center
04:06PM 36.5189 -86.4089 180° South 490 564 29,000  Level Memphis Center
04:07PM 36.3983 -86.4175 183° South 490 564 29,000  Level Memphis Center
04:08PM 36.2608 -86.4242 182° South 490 564 29,000  Level Memphis Center
04:09PM 36.1233 -86.4231 180° South 490 564 29,000  Level Memphis Center
04:11PM 35.8669 -86.3911 174° South 516 594 29,000  Level Atlanta Center
04:12PM 35.7339 -86.3667 172° South 496 571 29,000  Level Atlanta Center
04:13PM 35.6119 -86.2994 156° South 491 565 29,000  Level Atlanta Center
04:14PM 35.4989 -86.2069 146° Southeast 483 556 29,000  Level Atlanta Center
04:15PM 35.3858 -86.1122 146° Southeast 495 570 29,000 -60 Level Atlanta Center
04:16PM 35.2956 -86.0236 141° Southeast 483 556 28,900 -840 Descending Atlanta Center
04:17PM 35.2114 -85.9378 140° Southeast 430 495 27,400 -2,100 Descending Atlanta Center
04:18PM 35.1208 -85.8544 143° Southeast 399 459 24,800 -1,740 Descending Atlanta Center
04:19PM 35.0300 -85.7839 148° Southeast 384 442 24,000 -420 Descending Atlanta Center
04:20PM 34.9431 -85.7186 148° Southeast 372 428 24,000  Level Atlanta Center
04:21PM 34.8481 -85.6586 153° Southeast 372 428 24,000 -240 Level Atlanta Center
04:22PM 34.7508 -85.5986 153° Southeast 378 435 23,600 -960 Descending Atlanta Center
04:23PM 34.6597 -85.5364 151° Southeast 378 435 22,100 -1,920 Descending Atlanta Center
04:24PM 34.5769 -85.4717 147° Southeast 378 435 19,800 -2,040 Descending Atlanta Center
04:25PM 34.4983 -85.3997 143° Southeast 361 415 18,100 -1,800 Descending Atlanta Center
04:26PM 34.4283 -85.3181 136° Southeast 355 409 16,200 -1,860 Descending Atlanta Center
04:27PM 34.3539 -85.2592 147° Southeast 335 386 14,400 -1,200 Descending Atlanta Center
04:28PM 34.2750 -85.2103 153° Southeast 324 373 13,900 -240 Descending Atlanta Center
04:29PM 34.2044 -85.1692 154° Southeast 315 362 14,000  Climbing Atlanta Center
04:30PM 34.1342 -85.1028 142° Southeast 321 369 14,000  Level Atlanta Center
04:31PM 34.0783 -85.0169 128° Southeast 321 369 14,000 -300 Level Atlanta Center
04:32PM 34.0228 -84.9286 127° Southeast 332 382 13,400 -660 Descending Atlanta Center
04:33PM 33.9669 -84.8453 129° Southeast 323 372 12,700 -780 Descending Atlanta Center
04:34PM 33.9089 -84.7697 133° Southeast 318 366 11,900 -420 Descending Atlanta Center
04:35PM 33.8500 -84.7000 135° Southeast 307 353 12,000  Climbing Atlanta TRACON
04:36PM 33.7833 -84.6333 140° Southeast 319 367 12,000  Level Atlanta TRACON
04:37PM 33.7333 -84.5667 132° Southeast 290 334 12,000 -720 Level Atlanta TRACON
04:38PM 33.7333 -84.4833 90° East 270 311 10,700 -1,320 Descending Atlanta TRACON
04:39PM 33.7333 -84.4000 90° East 268 308 9,400 -1,860 Descending Atlanta TRACON
04:40PM 33.7333 -84.3000 90° East 248 285 6,900 -2,040 Descending Atlanta TRACON
04:41PM 33.7500 -84.2167 76° East 235 270 5,200 -960 Descending Atlanta TRACON
04:42PM 33.7500 -84.1333 90° East 239 275 5,000 -120 Descending Atlanta TRACON
04:43PM 33.7500 -84.0667 90° East 245 282 5,000  Level Atlanta TRACON
04:44PM 33.7167 -83.9833 116° Southeast 254 292 5,000  Level Atlanta TRACON
04:45PM 33.6667 -84.0000 196° South 243 280 5,000 -60 Level Atlanta TRACON
04:46PM 33.6500 -84.0667 253° West 209 241 4,900  Descending Atlanta TRACON
04:47PM 33.6500 -84.1333 270° West 189 217 5,000 -300 Climbing Atlanta TRACON
04:48PM 33.6500 -84.1833 270° West 192 221 4,400 -840 Descending Atlanta TRACON
04:49PM 33.6500 -84.2500 270° West 183 211 3,400 -1,020 Descending Atlanta TRACON